sensor_id;sensor_type;location;lat;lon;timestamp;pressure;altitude;pressure_sealevel;temperature;humidity
30421;BME280;17218;54.070;10.012;2022-10-17T00:01:52;101798.63;;;10.70;100.00
30421;BME280;17218;54.070;10.012;2022-10-17T00:04:18;101809.91;;;10.79;100.00
30421;BME280;17218;54.070;10.012;2022-10-17T00:06:45;101806.50;;;10.81;100.00
30421;BME280;17218;54.070;10.012;2022-10-17T00:09:11;101798.75;;;10.86;100.00
30421;BME280;17218;54.070;10.012;2022-10-17T00:11:39;101809.13;;;10.89;100.00
30421;BME280;17218;54.070;10.012;2022-10-17T00:14:06;101804.00;;;10.94;100.00
30421;BME280;17218;54.070;10.012;2022-10-17T00:16:34;101804.91;;;11.01;100.00
30421;BME280;17218;54.070;10.012;2022-10-17T00:19:02;101800.59;;;11.03;100.00
30421;BME280;17218;54.070;10.012;2022-10-17T00:21:29;101799.78;;;11.05;100.00
30421;BME280;17218;54.070;10.012;2022-10-17T00:23:55;101811.03;;;11.07;100.00
30421;BME280;17218;54.070;10.012;2022-10-17T00:26:22;101803.28;;;11.12;100.00
30421;BME280;17218;54.070;10.012;2022-10-17T00:28:51;101799.84;;;11.13;100.00
30421;BME280;17218;54.070;10.012;2022-10-17T00:31:19;101802.44;;;11.19;100.00
30421;BME280;17218;54.070;10.012;2022-10-17T00:33:46;101806.75;;;11.19;100.00
30421;BME280;17218;54.070;10.012;2022-10-17T00:36:14;101803.31;;;11.17;100.00
30421;BME280;17218;54.070;10.012;2022-10-17T00:38:42;101815.41;;;11.18;100.00
30421;BME280;17218;54.070;10.012;2022-10-17T00:41:12;101824.09;;;11.21;100.00
30421;BME280;17218;54.070;10.012;2022-10-17T00:43:52;101819.78;;;11.25;100.00
30421;BME280;17218;54.070;10.012;2022-10-17T00:46:19;101837.06;;;11.26;100.00
30421;BME280;17218;54.070;10.012;2022-10-17T00:48:47;101826.75;;;11.31;100.00
30421;BME280;17218;54.070;10.012;2022-10-17T00:51:15;101814.66;;;11.33;100.00
30421;BME280;17218;54.070;10.012;2022-10-17T00:53:45;101820.69;;;11.32;100.00
30421;BME280;17218;54.070;10.012;2022-10-17T00:56:12;101807.75;;;11.35;100.00
30421;BME280;17218;54.070;10.012;2022-10-17T00:58:39;101805.19;;;11.37;100.00
30421;BME280;17218;54.070;10.012;2022-10-17T01:01:06;101812.94;;;11.35;100.00
30421;BME280;17218;54.070;10.012;2022-10-17T01:03:33;101805.19;;;11.37;100.00
30421;BME280;17218;54.070;10.012;2022-10-17T01:06:00;101806.88;;;11.33;100.00
30421;BME280;17218;54.070;10.012;2022-10-17T01:08:26;101800.00;;;11.37;100.00
30421;BME280;17218;54.070;10.012;2022-10-17T01:11:00;101812.97;;;11.37;100.00
30421;BME280;17218;54.070;10.012;2022-10-17T01:13:35;101809.50;;;11.39;100.00
30421;BME280;17218;54.070;10.012;2022-10-17T01:16:10;101809.53;;;11.44;100.00
30421;BME280;17218;54.070;10.012;2022-10-17T01:18:50;101800.94;;;11.51;100.00
30421;BME280;17218;54.070;10.012;2022-10-17T01:21:33;101784.53;;;11.57;100.00
30421;BME280;17218;54.070;10.012;2022-10-17T01:24:26;101794.03;;;11.55;100.00
30421;BME280;17218;54.070;10.012;2022-10-17T01:27:23;101800.09;;;11.59;100.00
30421;BME280;17218;54.070;10.012;2022-10-17T01:30:02;101798.38;;;11.59;100.00
30421;BME280;17218;54.070;10.012;2022-10-17T01:32:39;101790.53;;;11.48;100.00
30421;BME280;17218;54.070;10.012;2022-10-17T01:35:12;101804.34;;;11.44;100.00
30421;BME280;17218;54.070;10.012;2022-10-17T01:37:44;101811.31;;;11.48;100.00
30421;BME280;17218;54.070;10.012;2022-10-17T01:40:15;101799.22;;;11.53;100.00
30421;BME280;17218;54.070;10.012;2022-10-17T01:42:52;101796.63;;;11.52;100.00
30421;BME280;17218;54.070;10.012;2022-10-17T01:45:24;101785.31;;;11.45;100.00
30421;BME280;17218;54.070;10.012;2022-10-17T01:47:55;101787.06;;;11.44;100.00
30421;BME280;17218;54.070;10.012;2022-10-17T01:50:27;101770.63;;;11.41;100.00
30421;BME280;17218;54.070;10.012;2022-10-17T01:52:58;101773.09;;;11.20;100.00
30421;BME280;17218;54.070;10.012;2022-10-17T01:55:30;101776.56;;;11.26;100.00
30421;BME280;17218;54.070;10.012;2022-10-17T01:58:01;101778.31;;;11.30;100.00
30421;BME280;17218;54.070;10.012;2022-10-17T02:00:29;101773.09;;;11.25;100.00
30421;BME280;17218;54.070;10.012;2022-10-17T02:03:00;101764.47;;;11.28;100.00
30421;BME280;17218;54.070;10.012;2022-10-17T02:05:32;101756.75;;;11.37;100.00
30421;BME280;17218;54.070;10.012;2022-10-17T02:08:00;101765.44;;;11.44;100.00
30421;BME280;17218;54.070;10.012;2022-10-17T02:10:34;101766.31;;;11.52;100.00
30421;BME280;17218;54.070;10.012;2022-10-17T02:13:08;101754.28;;;11.57;100.00
30421;BME280;17218;54.070;10.012;2022-10-17T02:15:46;101774.19;;;11.68;100.00
30421;BME280;17218;54.070;10.012;2022-10-17T02:18:35;101771.66;;;11.79;100.00
30421;BME280;17218;54.070;10.012;2022-10-17T02:21:08;101780.31;;;11.81;100.00
30421;BME280;17218;54.070;10.012;2022-10-17T02:23:45;101781.19;;;11.86;100.00
30421;BME280;17218;54.070;10.012;2022-10-17T02:26:19;101778.63;;;11.91;100.00
30421;BME280;17218;54.070;10.012;2022-10-17T02:28:51;101774.28;;;11.95;100.00
30421;BME280;17218;54.070;10.012;2022-10-17T02:31:28;101776.94;;;11.99;100.00
30421;BME280;17218;54.070;10.012;2022-10-17T02:34:01;101774.31;;;12.02;100.00
30421;BME280;17218;54.070;10.012;2022-10-17T02:36:31;101763.94;;;12.04;100.00
30421;BME280;17218;54.070;10.012;2022-10-17T02:39:02;101763.09;;;12.05;100.00
30421;BME280;17218;54.070;10.012;2022-10-17T02:41:30;101751.00;;;12.05;100.00
30421;BME280;17218;54.070;10.012;2022-10-17T02:43:58;101746.66;;;12.09;100.00
30421;BME280;17218;54.070;10.012;2022-10-17T02:46:27;101748.34;;;12.04;100.00
30421;BME280;17218;54.070;10.012;2022-10-17T02:48:57;101736.25;;;12.01;100.00
30421;BME280;17218;54.070;10.012;2022-10-17T02:51:32;101737.06;;;11.91;100.00
30421;BME280;17218;54.070;10.012;2022-10-17T02:54:07;101732.75;;;11.95;100.00
30421;BME280;17218;54.070;10.012;2022-10-17T02:56:40;101733.66;;;12.03;100.00
30421;BME280;17218;54.070;10.012;2022-10-17T02:59:11;101730.22;;;12.15;100.00
30421;BME280;17218;54.070;10.012;2022-10-17T03:01:40;101735.47;;;12.20;100.00
30421;BME280;17218;54.070;10.012;2022-10-17T03:04:08;101729.38;;;12.21;100.00
30421;BME280;17218;54.070;10.012;2022-10-17T03:06:37;101735.44;;;12.23;100.00
30421;BME280;17218;54.070;10.012;2022-10-17T03:09:03;101725.06;;;12.23;100.00
30421;BME280;17218;54.070;10.012;2022-10-17T03:11:30;101724.19;;;12.16;100.00
30421;BME280;17218;54.070;10.012;2022-10-17T03:13:56;101721.56;;;12.11;100.00
30421;BME280;17218;54.070;10.012;2022-10-17T03:16:23;101728.47;;;12.08;100.00
30421;BME280;17218;54.070;10.012;2022-10-17T03:18:49;101731.06;;;12.00;100.00
30421;BME280;17218;54.070;10.012;2022-10-17T03:21:16;101725.00;;;12.05;100.00
30421;BME280;17218;54.070;10.012;2022-10-17T03:23:44;101719.84;;;12.12;100.00
30421;BME280;17218;54.070;10.012;2022-10-17T03:26:10;101719.00;;;12.16;100.00
30421;BME280;17218;54.070;10.012;2022-10-17T03:28:37;101724.13;;;12.08;100.00
30421;BME280;17218;54.070;10.012;2022-10-17T03:31:07;101721.59;;;12.14;100.00
30421;BME280;17218;54.070;10.012;2022-10-17T03:33:35;101711.19;;;12.10;100.00
30421;BME280;17218;54.070;10.012;2022-10-17T03:36:04;101716.41;;;12.14;100.00
30421;BME280;17218;54.070;10.012;2022-10-17T03:38:32;101708.59;;;12.21;100.00
30421;BME280;17218;54.070;10.012;2022-10-17T03:41:00;101695.63;;;12.16;100.00
30421;BME280;17218;54.070;10.012;2022-10-17T03:43:26;101687.81;;;12.19;100.00
30421;BME280;17218;54.070;10.012;2022-10-17T03:45:53;101685.25;;;12.25;100.00
30421;BME280;17218;54.070;10.012;2022-10-17T03:48:19;101693.03;;;12.24;100.00
30421;BME280;17218;54.070;10.012;2022-10-17T03:50:46;101698.22;;;12.16;100.00
30421;BME280;17218;54.070;10.012;2022-10-17T03:53:12;101703.38;;;12.08;100.00
30421;BME280;17218;54.070;10.012;2022-10-17T03:55:39;101700.78;;;12.11;100.00
30421;BME280;17218;54.070;10.012;2022-10-17T03:58:07;101701.69;;;12.20;100.00
30421;BME280;17218;54.070;10.012;2022-10-17T04:00:34;101693.03;;;12.25;100.00
30421;BME280;17218;54.070;10.012;2022-10-17T04:03:01;101683.53;;;12.37;100.00
30421;BME280;17218;54.070;10.012;2022-10-17T04:05:27;101685.25;;;12.36;100.00
30421;BME280;17218;54.070;10.012;2022-10-17T04:07:54;101681.75;;;12.28;100.00
30421;BME280;17218;54.070;10.012;2022-10-17T04:10:20;101684.38;;;12.19;100.00
30421;BME280;17218;54.070;10.012;2022-10-17T04:12:46;101679.16;;;12.12;100.00
30421;BME280;17218;54.070;10.012;2022-10-17T04:15:14;101681.75;;;12.15;100.00
30421;BME280;17218;54.070;10.012;2022-10-17T04:17:41;101676.56;;;12.15;100.00
30421;BME280;17218;54.070;10.012;2022-10-17T04:20:08;101675.66;;;12.04;100.00
30421;BME280;17218;54.070;10.012;2022-10-17T04:22:35;101674.78;;;12.00;100.00
30421;BME280;17218;54.070;10.012;2022-10-17T04:25:01;101666.13;;;12.00;100.00
30421;BME280;17218;54.070;10.012;2022-10-17T04:27:28;101673.03;;;11.85;100.00
30421;BME280;17218;54.070;10.012;2022-10-17T04:29:55;101671.28;;;11.86;100.00
30421;BME280;17218;54.070;10.012;2022-10-17T04:32:23;101674.75;;;11.85;100.00
30421;BME280;17218;54.070;10.012;2022-10-17T04:34:50;101666.09;;;11.87;100.00
30421;BME280;17218;54.070;10.012;2022-10-17T04:37:16;101666.09;;;11.86;100.00
30421;BME280;17218;54.070;10.012;2022-10-17T04:39:43;101670.44;;;11.88;100.00
30421;BME280;17218;54.070;10.012;2022-10-17T04:42:09;101669.56;;;11.91;100.00
30421;BME280;17218;54.070;10.012;2022-10-17T04:44:36;101661.78;;;11.91;100.00
30421;BME280;17218;54.070;10.012;2022-10-17T04:47:02;101660.94;;;11.89;100.00
30421;BME280;17218;54.070;10.012;2022-10-17T04:49:30;101658.31;;;11.95;100.00
30421;BME280;17218;54.070;10.012;2022-10-17T04:51:56;101658.34;;;12.03;100.00
30421;BME280;17218;54.070;10.012;2022-10-17T04:54:23;101661.81;;;12.05;100.00
30421;BME280;17218;54.070;10.012;2022-10-17T04:56:50;101663.53;;;12.08;100.00
30421;BME280;17218;54.070;10.012;2022-10-17T04:59:16;101658.34;;;12.03;100.00
30421;BME280;17218;54.070;10.012;2022-10-17T05:01:43;101653.16;;;12.00;100.00
30421;BME280;17218;54.070;10.012;2022-10-17T05:04:09;101657.47;;;12.01;100.00
30421;BME280;17218;54.070;10.012;2022-10-17T05:06:37;101647.97;;;12.03;100.00
30421;BME280;17218;54.070;10.012;2022-10-17T05:09:03;101645.38;;;12.00;100.00
30421;BME280;17218;54.070;10.012;2022-10-17T05:11:30;101637.53;;;11.87;100.00
30421;BME280;17218;54.070;10.012;2022-10-17T05:13:58;101641.88;;;11.85;100.00
30421;BME280;17218;54.070;10.012;2022-10-17T05:16:26;101637.53;;;11.87;100.00
30421;BME280;17218;54.070;10.012;2022-10-17T05:18:54;101634.13;;;11.96;100.00
30421;BME280;17218;54.070;10.012;2022-10-17T05:21:22;101637.56;;;12.04;100.00
30421;BME280;17218;54.070;10.012;2022-10-17T05:23:50;101636.72;;;12.09;100.00
30421;BME280;17218;54.070;10.012;2022-10-17T05:26:18;101635.84;;;12.07;100.00
30421;BME280;17218;54.070;10.012;2022-10-17T05:28:44;101638.44;;;12.07;100.00
30421;BME280;17218;54.070;10.012;2022-10-17T05:31:11;101639.31;;;12.07;100.00
30421;BME280;17218;54.070;10.012;2022-10-17T05:33:39;101627.19;;;12.06;100.00
30421;BME280;17218;54.070;10.012;2022-10-17T05:36:06;101628.91;;;12.09;100.00
30421;BME280;17218;54.070;10.012;2022-10-17T05:38:33;101622.00;;;12.01;100.00
30421;BME280;17218;54.070;10.012;2022-10-17T05:41:03;101620.25;;;11.99;100.00
30421;BME280;17218;54.070;10.012;2022-10-17T05:43:31;101629.78;;;12.03;100.00
30421;BME280;17218;54.070;10.012;2022-10-17T05:46:01;101633.25;;;12.07;100.00
30421;BME280;17218;54.070;10.012;2022-10-17T05:48:27;101619.41;;;12.09;100.00
30421;BME280;17218;54.070;10.012;2022-10-17T05:50:57;101622.03;;;12.14;100.00
30421;BME280;17218;54.070;10.012;2022-10-17T05:53:24;101617.69;;;12.11;100.00
30421;BME280;17218;54.070;10.012;2022-10-17T05:55:55;101608.16;;;12.09;100.00
30421;BME280;17218;54.070;10.012;2022-10-17T05:58:23;101618.53;;;12.05;100.00
30421;BME280;17218;54.070;10.012;2022-10-17T06:00:49;101609.84;;;12.00;100.00
30421;BME280;17218;54.070;10.012;2022-10-17T06:03:16;101618.53;;;12.02;100.00
30421;BME280;17218;54.070;10.012;2022-10-17T06:05:42;101622.00;;;12.03;100.00
30421;BME280;17218;54.070;10.012;2022-10-17T06:08:09;101619.41;;;11.98;100.00
30421;BME280;17218;54.070;10.012;2022-10-17T06:10:35;101617.66;;;11.97;100.00
30421;BME280;17218;54.070;10.012;2022-10-17T06:13:03;101615.06;;;11.97;100.00
30421;BME280;17218;54.070;10.012;2022-10-17T06:15:31;101614.22;;;12.01;100.00
30421;BME280;17218;54.070;10.012;2022-10-17T06:17:58;101617.63;;;11.91;100.00
30421;BME280;17218;54.070;10.012;2022-10-17T06:20:24;101625.44;;;11.91;100.00
30421;BME280;17218;54.070;10.012;2022-10-17T06:22:51;101623.72;;;12.01;100.00
30421;BME280;17218;54.070;10.012;2022-10-17T06:25:17;101621.13;;;12.07;100.00
30421;BME280;17218;54.070;10.012;2022-10-17T06:27:44;101631.56;;;12.10;100.00
30421;BME280;17218;54.070;10.012;2022-10-17T06:30:10;101636.75;;;12.18;100.00
30421;BME280;17218;54.070;10.012;2022-10-17T06:32:38;101625.50;;;12.24;100.00
30421;BME280;17218;54.070;10.012;2022-10-17T06:35:05;101622.91;;;12.14;100.00
30421;BME280;17218;54.070;10.012;2022-10-17T06:37:33;101620.28;;;12.03;100.00
30421;BME280;17218;54.070;10.012;2022-10-17T06:40:00;101619.41;;;12.03;100.00
30421;BME280;17218;54.070;10.012;2022-10-17T06:42:27;101627.22;;;12.12;100.00
30421;BME280;17218;54.070;10.012;2022-10-17T06:44:53;101618.53;;;12.07;100.00
30421;BME280;17218;54.070;10.012;2022-10-17T06:47:20;101628.09;;;12.14;100.00
30421;BME280;17218;54.070;10.012;2022-10-17T06:49:48;101635.03;;;12.20;100.00
30421;BME280;17218;54.070;10.012;2022-10-17T06:52:14;101627.22;;;12.34;100.00
30421;BME280;17218;54.070;10.012;2022-10-17T06:54:41;101625.50;;;12.38;100.00
30421;BME280;17218;54.070;10.012;2022-10-17T06:57:08;101624.63;;;12.44;100.00
30421;BME280;17218;54.070;10.012;2022-10-17T06:59:35;101610.75;;;12.52;100.00
30421;BME280;17218;54.070;10.012;2022-10-17T07:02:01;101614.22;;;12.48;100.00
30421;BME280;17218;54.070;10.012;2022-10-17T07:04:28;101628.94;;;12.57;100.00
30421;BME280;17218;54.070;10.012;2022-10-17T07:06:56;101625.44;;;12.75;100.00
30421;BME280;17218;54.070;10.012;2022-10-17T07:09:22;101626.25;;;12.85;100.00
30421;BME280;17218;54.070;10.012;2022-10-17T07:11:49;101629.72;;;12.97;100.00
30421;BME280;17218;54.070;10.012;2022-10-17T07:14:15;101625.38;;;13.05;100.00
30421;BME280;17218;54.070;10.012;2022-10-17T07:19:17;101626.19;;;13.12;100.00
30421;BME280;17218;54.070;10.012;2022-10-17T07:21:43;101633.13;;;13.16;100.00
30421;BME280;17218;54.070;10.012;2022-10-17T07:24:11;101638.25;;;13.32;100.00
30421;BME280;17218;54.070;10.012;2022-10-17T07:26:38;101638.19;;;13.44;100.00
30421;BME280;17218;54.070;10.012;2022-10-17T07:29:04;101638.19;;;13.49;100.00
30421;BME280;17218;54.070;10.012;2022-10-17T07:31:32;101638.19;;;13.55;100.00
30421;BME280;17218;54.070;10.012;2022-10-17T07:33:58;101632.97;;;13.57;100.00
30421;BME280;17218;54.070;10.012;2022-10-17T07:36:25;101638.16;;;13.51;100.00
30421;BME280;17218;54.070;10.012;2022-10-17T07:38:52;101645.06;;;13.61;100.00
30421;BME280;17218;54.070;10.012;2022-10-17T07:41:19;101634.59;;;13.77;100.00
30421;BME280;17218;54.070;10.012;2022-10-17T07:43:46;101639.66;;;13.97;100.00
30421;BME280;17218;54.070;10.012;2022-10-17T07:46:13;101641.31;;;14.06;100.00
30421;BME280;17218;54.070;10.012;2022-10-17T07:48:40;101637.81;;;14.10;100.00
30421;BME280;17218;54.070;10.012;2022-10-17T07:51:07;101616.94;;;14.15;100.00
30421;BME280;17218;54.070;10.012;2022-10-17T07:53:35;101619.47;;;14.24;100.00
30421;BME280;17218;54.070;10.012;2022-10-17T07:58:38;101628.91;;;14.39;100.00
30421;BME280;17218;54.070;10.012;2022-10-17T08:01:07;101618.31;;;14.53;100.00
30421;BME280;17218;54.070;10.012;2022-10-17T08:03:35;101620.72;;;14.74;100.00
30421;BME280;17218;54.070;10.012;2022-10-17T08:06:02;101626.81;;;14.74;100.00
30421;BME280;17218;54.070;10.012;2022-10-17T08:08:28;101624.09;;;14.90;100.00
30421;BME280;17218;54.070;10.012;2022-10-17T08:11:00;101609.94;;;15.10;100.00
30421;BME280;17218;54.070;10.012;2022-10-17T08:13:27;101601.09;;;15.20;100.00
30421;BME280;17218;54.070;10.012;2022-10-17T08:15:59;101595.81;;;15.26;100.00
30421;BME280;17218;54.070;10.012;2022-10-17T08:18:25;101608.75;;;15.34;100.00
30421;BME280;17218;54.070;10.012;2022-10-17T08:20:52;101606.16;;;15.33;100.00
30421;BME280;17218;54.070;10.012;2022-10-17T08:23:18;101600.03;;;15.35;100.00
30421;BME280;17218;54.070;10.012;2022-10-17T08:25:45;101612.94;;;15.46;100.00
30421;BME280;17218;54.070;10.012;2022-10-17T08:28:11;101604.06;;;15.58;100.00
30421;BME280;17218;54.070;10.012;2022-10-17T08:30:38;101612.75;;;15.59;100.00
30421;BME280;17218;54.070;10.012;2022-10-17T08:33:06;101610.09;;;15.64;100.00
30421;BME280;17218;54.070;10.012;2022-10-17T08:38:13;101602.00;;;15.81;100.00
30421;BME280;17218;54.070;10.012;2022-10-17T08:40:39;101601.00;;;15.90;100.00
30421;BME280;17218;54.070;10.012;2022-10-17T08:43:26;101593.03;;;15.96;100.00
30421;BME280;17218;54.070;10.012;2022-10-17T08:45:57;101602.50;;;16.06;100.00
30421;BME280;17218;54.070;10.012;2022-10-17T08:48:30;101586.69;;;16.13;100.00
30421;BME280;17218;54.070;10.012;2022-10-17T08:51:02;101576.31;;;16.09;100.00
30421;BME280;17218;54.070;10.012;2022-10-17T08:53:35;101569.34;;;16.10;100.00
30421;BME280;17218;54.070;10.012;2022-10-17T08:56:06;101570.94;;;16.17;100.00
30421;BME280;17218;54.070;10.012;2022-10-17T08:58:36;101576.81;;;16.30;100.00
30421;BME280;17218;54.070;10.012;2022-10-17T09:01:07;101586.25;;;16.39;100.00
30421;BME280;17218;54.070;10.012;2022-10-17T09:03:54;101572.28;;;16.40;100.00
30421;BME280;17218;54.070;10.012;2022-10-17T09:06:27;101551.00;;;16.59;100.00
30421;BME280;17218;54.070;10.012;2022-10-17T09:09:10;101549.06;;;16.69;100.00
30421;BME280;17218;54.070;10.012;2022-10-17T09:11:50;101556.88;;;16.71;100.00
30421;BME280;17218;54.070;10.012;2022-10-17T09:14:34;101553.09;;;16.86;100.00
30421;BME280;17218;54.070;10.012;2022-10-17T09:17:11;101552.75;;;17.01;100.00
30421;BME280;17218;54.070;10.012;2022-10-17T09:19:48;101558.72;;;17.10;100.00
30421;BME280;17218;54.070;10.012;2022-10-17T09:22:21;101555.84;;;17.22;100.00
30421;BME280;17218;54.070;10.012;2022-10-17T09:24:51;101571.59;;;17.21;100.00
30421;BME280;17218;54.070;10.012;2022-10-17T09:27:23;101564.72;;;17.15;100.00
30421;BME280;17218;54.070;10.012;2022-10-17T09:29:57;101570.91;;;17.12;100.00
30421;BME280;17218;54.070;10.012;2022-10-17T09:32:27;101578.41;;;17.28;100.00
30421;BME280;17218;54.070;10.012;2022-10-17T09:34:55;101577.47;;;17.32;100.00
30421;BME280;17218;54.070;10.012;2022-10-17T09:37:28;101579.13;;;17.35;100.00
30421;BME280;17218;54.070;10.012;2022-10-17T09:39:56;101581.53;;;17.44;100.00
30421;BME280;17218;54.070;10.012;2022-10-17T09:42:24;101583.13;;;17.51;100.00
30421;BME280;17218;54.070;10.012;2022-10-17T09:44:56;101584.69;;;17.59;100.00
30421;BME280;17218;54.070;10.012;2022-10-17T09:47:30;101588.91;;;17.66;100.00
30421;BME280;17218;54.070;10.012;2022-10-17T09:50:01;101589.63;;;17.73;100.00
30421;BME280;17218;54.070;10.012;2022-10-17T09:52:32;101586.28;;;17.66;100.00
30421;BME280;17218;54.070;10.012;2022-10-17T09:55:03;101592.16;;;17.76;100.00
30421;BME280;17218;54.070;10.012;2022-10-17T09:57:51;101583.81;;;17.96;100.00
30421;BME280;17218;54.070;10.012;2022-10-17T10:00:21;101580.09;;;18.05;100.00
30421;BME280;17218;54.070;10.012;2022-10-17T10:02:48;101595.53;;;18.19;100.00
30421;BME280;17218;54.070;10.012;2022-10-17T10:05:17;101591.97;;;18.20;100.00
30421;BME280;17218;54.070;10.012;2022-10-17T10:07:59;101578.59;;;18.31;100.00
30421;BME280;17218;54.070;10.012;2022-10-17T10:10:28;101589.59;;;18.44;100.00
30421;BME280;17218;54.070;10.012;2022-10-17T10:13:04;101586.78;;;18.52;100.00
30421;BME280;17218;54.070;10.012;2022-10-17T10:28:29;101589.56;;;19.10;100.00
30421;BME280;17218;54.070;10.012;2022-10-17T10:30:59;101579.47;;;19.26;100.00
30421;BME280;17218;54.070;10.012;2022-10-17T10:33:29;101581.56;;;19.43;100.00
30421;BME280;17218;54.070;10.012;2022-10-17T10:35:58;101580.47;;;19.50;100.00
30421;BME280;17218;54.070;10.012;2022-10-17T10:38:28;101583.03;;;19.52;100.00
30421;BME280;17218;54.070;10.012;2022-10-17T10:41:00;101590.00;;;19.53;100.00
30421;BME280;17218;54.070;10.012;2022-10-17T10:43:33;101597.00;;;19.54;100.00
30421;BME280;17218;54.070;10.012;2022-10-17T10:46:01;101587.56;;;19.75;100.00
30421;BME280;17218;54.070;10.012;2022-10-17T10:48:31;101583.00;;;19.81;100.00
30421;BME280;17218;54.070;10.012;2022-10-17T10:51:02;101591.34;;;19.94;100.00
30421;BME280;17218;54.070;10.012;2022-10-17T10:53:40;101584.50;;;19.88;100.00
30421;BME280;17218;54.070;10.012;2022-10-17T10:56:13;101589.44;;;19.99;100.00
30421;BME280;17218;54.070;10.012;2022-10-17T10:58:50;101580.50;;;20.03;100.00
30421;BME280;17218;54.070;10.012;2022-10-17T11:01:23;101586.94;;;19.94;100.00
30421;BME280;17218;54.070;10.012;2022-10-17T11:04:00;101581.34;;;19.78;100.00
30421;BME280;17218;54.070;10.012;2022-10-17T11:06:35;101592.50;;;19.85;100.00
30421;BME280;17218;54.070;10.012;2022-10-17T11:09:10;101595.88;;;19.88;100.00
30421;BME280;17218;54.070;10.012;2022-10-17T11:11:41;101587.50;;;19.77;100.00
30421;BME280;17218;54.070;10.012;2022-10-17T11:14:15;101592.16;;;19.69;100.00
30421;BME280;17218;54.070;10.012;2022-10-17T11:16:46;101607.00;;;19.70;100.00
30421;BME280;17218;54.070;10.012;2022-10-17T11:19:17;101597.41;;;19.69;100.00
30421;BME280;17218;54.070;10.012;2022-10-17T11:21:59;101612.94;;;19.76;100.00
30421;BME280;17218;54.070;10.012;2022-10-17T11:24:33;101610.66;;;19.65;100.00
30421;BME280;17218;54.070;10.012;2022-10-17T11:27:04;101604.72;;;19.59;100.00
30421;BME280;17218;54.070;10.012;2022-10-17T11:29:33;101608.28;;;19.58;100.00
30421;BME280;17218;54.070;10.012;2022-10-17T11:32:04;101605.06;;;19.48;100.00
30421;BME280;17218;54.070;10.012;2022-10-17T11:34:36;101601.00;;;19.37;100.00
30421;BME280;17218;54.070;10.012;2022-10-17T11:37:11;101606.03;;;19.45;100.00
30421;BME280;17218;54.070;10.012;2022-10-17T11:39:42;101608.66;;;19.45;100.00
30421;BME280;17218;54.070;10.012;2022-10-17T11:42:16;101606.50;;;19.58;100.00
30421;BME280;17218;54.070;10.012;2022-10-17T11:44:46;101608.78;;;19.69;100.00
30421;BME280;17218;54.070;10.012;2022-10-17T11:47:30;101621.66;;;19.78;100.00
30421;BME280;17218;54.070;10.012;2022-10-17T11:50:04;101621.00;;;19.97;100.00
30421;BME280;17218;54.070;10.012;2022-10-17T11:52:36;101613.03;;;20.28;100.00
30421;BME280;17218;54.070;10.012;2022-10-17T11:55:09;101615.50;;;20.58;100.00
30421;BME280;17218;54.070;10.012;2022-10-17T11:57:51;101620.22;;;20.73;100.00
30421;BME280;17218;54.070;10.012;2022-10-17T12:00:30;101625.47;;;20.73;100.00
30421;BME280;17218;54.070;10.012;2022-10-17T12:03:06;101597.78;;;20.63;100.00
30421;BME280;17218;54.070;10.012;2022-10-17T12:05:43;101604.75;;;20.64;100.00
30421;BME280;17218;54.070;10.012;2022-10-17T12:08:19;101601.94;;;20.45;100.00
30421;BME280;17218;54.070;10.012;2022-10-17T12:10:50;101607.25;;;20.43;100.00
30421;BME280;17218;54.070;10.012;2022-10-17T12:13:47;101594.38;;;20.35;100.00
30421;BME280;17218;54.070;10.012;2022-10-17T12:16:50;101599.25;;;20.21;100.00
30421;BME280;17218;54.070;10.012;2022-10-17T12:19:27;101619.19;;;19.99;100.00
30421;BME280;17218;54.070;10.012;2022-10-17T12:21:58;101613.28;;;19.93;100.00
30421;BME280;17218;54.070;10.012;2022-10-17T12:24:40;101608.34;;;19.83;100.00
30421;BME280;17218;54.070;10.012;2022-10-17T12:30:20;101598.13;;;19.74;100.00
30421;BME280;17218;54.070;10.012;2022-10-17T12:33:13;101609.69;;;19.68;100.00
30421;BME280;17218;54.070;10.012;2022-10-17T12:35:46;101601.03;;;19.64;100.00
30421;BME280;17218;54.070;10.012;2022-10-17T12:38:18;101618.72;;;19.59;100.00
30421;BME280;17218;54.070;10.012;2022-10-17T12:40:59;101622.41;;;19.53;100.00
30421;BME280;17218;54.070;10.012;2022-10-17T12:43:37;101639.59;;;19.35;100.00
30421;BME280;17218;54.070;10.012;2022-10-17T12:46:09;101661.97;;;19.18;100.00
30421;BME280;17218;54.070;10.012;2022-10-17T12:49:01;101704.50;;;18.98;100.00
30421;BME280;17218;54.070;10.012;2022-10-17T12:51:28;101715.69;;;18.71;100.00
30421;BME280;17218;54.070;10.012;2022-10-17T12:53:57;101711.00;;;18.50;100.00
30421;BME280;17218;54.070;10.012;2022-10-17T12:56:34;101680.25;;;18.20;100.00
30421;BME280;17218;54.070;10.012;2022-10-17T12:59:07;101659.44;;;18.14;100.00
30421;BME280;17218;54.070;10.012;2022-10-17T13:01:36;101662.56;;;18.30;100.00
30421;BME280;17218;54.070;10.012;2022-10-17T13:04:08;101667.00;;;18.26;100.00
30421;BME280;17218;54.070;10.012;2022-10-17T13:06:38;101667.00;;;18.26;100.00
30421;BME280;17218;54.070;10.012;2022-10-17T13:09:17;101666.75;;;18.37;100.00
30421;BME280;17218;54.070;10.012;2022-10-17T13:11:48;101667.38;;;18.47;100.00